createdAt,value
2023-05-12T00:01:19.857Z,93.88
2023-05-12T00:04:23.907Z,94.13
2023-05-12T00:07:26.670Z,94.38
2023-05-12T00:10:29.437Z,94.27
2023-05-12T00:13:32.159Z,94.33
2023-05-12T00:16:34.999Z,94.47
2023-05-12T00:19:41.633Z,94.25
2023-05-12T00:22:44.245Z,95.00
2023-05-12T00:25:46.916Z,95.25
2023-05-12T00:28:49.537Z,95.37
2023-05-12T00:31:52.278Z,95.47
2023-05-12T00:34:57.342Z,94.76
2023-05-12T00:37:59.940Z,94.84
2023-05-12T00:41:02.736Z,95.07
2023-05-12T00:44:05.614Z,95.19
2023-05-12T00:47:08.325Z,95.27
2023-05-12T00:50:12.861Z,95.49
2023-05-12T00:53:15.580Z,95.32
2023-05-12T00:56:21.491Z,94.95
2023-05-12T00:59:27.732Z,94.84
2023-05-12T01:02:34.218Z,95.05
2023-05-12T01:05:51.590Z,94.93
2023-05-12T01:08:59.201Z,94.45
2023-05-12T01:12:05.401Z,94.67
2023-05-12T01:15:13.497Z,94.81
2023-05-12T01:18:24.171Z,94.84
2023-05-12T01:21:32.729Z,95.55
2023-05-12T01:24:46.470Z,95.07
2023-05-12T01:27:56.200Z,95.20
2023-05-12T01:31:05.391Z,94.83
2023-05-12T01:34:11.429Z,94.70
2023-05-12T01:37:18.236Z,94.92
2023-05-12T01:40:24.221Z,95.54
2023-05-12T01:43:34.198Z,95.35
2023-05-12T01:46:40.161Z,95.75
2023-05-12T01:49:50.420Z,95.95
2023-05-12T01:52:56.028Z,95.46
2023-05-12T01:56:07.239Z,95.68
2023-05-12T01:59:19.971Z,95.31
2023-05-12T02:02:27.828Z,95.85
2023-05-12T02:05:44.603Z,95.98
2023-05-12T02:08:53.131Z,95.52
2023-05-12T02:12:02.638Z,95.72
2023-05-12T02:15:20.985Z,95.30
2023-05-12T02:18:27.723Z,95.52
2023-05-12T02:21:34.080Z,95.72
2023-05-12T02:24:41.058Z,95.90
2023-05-12T02:27:50.350Z,95.81
2023-05-12T02:30:58.796Z,95.91
2023-05-12T02:34:11.362Z,95.90
2023-05-12T02:37:20.350Z,95.45
2023-05-12T02:40:31.096Z,95.64
2023-05-12T02:43:36.408Z,95.84
2023-05-12T02:46:48.107Z,95.71
2023-05-12T02:49:57.391Z,95.42
2023-05-12T02:53:04.955Z,95.26
2023-05-12T02:56:10.425Z,95.54
2023-05-12T02:59:25.471Z,95.45
2023-05-12T03:02:36.831Z,96.11
2023-05-12T03:05:42.355Z,96.09
2023-05-12T03:08:47.415Z,96.19
2023-05-12T03:11:58.280Z,96.01
2023-05-12T03:15:13.397Z,96.84
2023-05-12T03:18:20.781Z,97.19
2023-05-12T03:21:27.382Z,97.02
2023-05-12T03:24:41.881Z,96.59
2023-05-12T03:27:52.822Z,96.25
2023-05-12T03:30:59.973Z,96.37
2023-05-12T03:34:10.303Z,96.08
2023-05-12T03:37:18.290Z,96.16
2023-05-12T03:40:23.886Z,96.01
2023-05-12T03:43:31.639Z,96.13
2023-05-12T03:46:43.390Z,96.43
2023-05-12T03:49:55.738Z,96.20
2023-05-12T03:53:00.939Z,96.03
2023-05-12T03:56:09.089Z,95.91
2023-05-12T03:59:19.114Z,95.78
2023-05-12T04:02:25.229Z,96.08
2023-05-12T04:05:36.048Z,96.25
2023-05-12T04:08:52.037Z,96.25
2023-05-12T04:12:03.809Z,95.87
2023-05-12T04:15:10.231Z,95.78
2023-05-12T04:18:15.376Z,96.31
2023-05-12T04:21:21.435Z,95.99
2023-05-12T04:24:43.743Z,96.31
2023-05-12T04:27:50.024Z,96.40
2023-05-12T04:30:55.945Z,97.10
2023-05-12T04:34:02.297Z,96.97
2023-05-12T04:37:11.291Z,96.61
2023-05-12T04:40:16.124Z,96.66
2023-05-12T04:46:32.068Z,96.31
2023-05-12T04:49:37.679Z,95.74
2023-05-12T04:52:45.195Z,95.00
2023-05-12T04:55:52.858Z,95.77
2023-05-12T04:59:01.652Z,95.73
2023-05-12T05:02:05.855Z,96.23
2023-05-12T05:05:10.611Z,95.75
2023-05-12T05:08:23.276Z,95.53
2023-05-12T05:11:29.848Z,95.39
2023-05-12T05:14:36.512Z,94.84
2023-05-12T05:17:44.471Z,95.18
2023-05-12T05:20:57.933Z,94.44
2023-05-12T05:24:10.829Z,94.28
2023-05-12T05:27:18.968Z,94.40
2023-05-12T05:30:24.549Z,94.18
2023-05-12T05:33:31.738Z,94.16
2023-05-12T05:36:38.112Z,93.81
2023-05-12T05:39:45.687Z,93.64
2023-05-12T05:42:50.473Z,93.58
2023-05-12T05:45:53.310Z,93.58
2023-05-12T05:48:56.213Z,93.90
2023-05-12T05:51:59.054Z,93.33
2023-05-12T05:55:03.331Z,93.57
2023-05-12T05:58:06.204Z,92.92
2023-05-12T06:01:08.971Z,92.85
2023-05-12T06:04:11.899Z,93.17
2023-05-12T06:07:14.783Z,93.06
2023-05-12T06:10:19.678Z,92.54
2023-05-12T06:13:24.815Z,91.78
2023-05-12T06:16:27.656Z,91.91
2023-05-12T06:19:30.873Z,91.66
2023-05-12T06:22:34.842Z,92.28
2023-05-12T06:25:39.377Z,91.75
2023-05-12T06:28:42.243Z,92.02
2023-05-12T06:31:47.324Z,92.15
2023-05-12T06:34:50.394Z,91.73
2023-05-12T06:37:53.611Z,91.33
2023-05-12T06:40:57.728Z,91.22
2023-05-12T06:44:02.451Z,90.69
2023-05-12T06:47:06.955Z,90.49
2023-05-12T06:50:11.258Z,90.81
2023-05-12T06:53:14.211Z,90.78
2023-05-12T06:56:18.420Z,90.94
2023-05-12T06:59:21.461Z,90.99
2023-05-12T07:02:24.200Z,90.81
2023-05-12T07:05:27.012Z,90.53
2023-05-12T07:08:29.823Z,89.74
2023-05-12T07:11:34.173Z,88.67
2023-05-12T07:14:37.338Z,88.51
2023-05-12T07:17:40.242Z,88.52
2023-05-12T07:20:43.149Z,88.18
2023-05-12T07:23:46.328Z,87.59
2023-05-12T07:26:50.582Z,87.66
2023-05-12T07:29:53.261Z,88.45
2023-05-12T07:32:56.259Z,89.67
2023-05-12T07:35:59.200Z,88.31
2023-05-12T07:39:01.863Z,88.18
2023-05-12T07:42:07.020Z,87.99
2023-05-12T07:45:10.207Z,87.57
2023-05-12T07:48:13.484Z,86.62
2023-05-12T07:51:16.238Z,85.70
2023-05-12T07:54:18.940Z,85.64
2023-05-12T07:57:23.085Z,84.39
2023-05-12T08:00:26.052Z,85.15
2023-05-12T08:03:29.027Z,84.70
2023-05-12T08:06:31.857Z,83.76
2023-05-12T08:09:34.602Z,83.77
2023-05-12T08:12:38.806Z,83.82
2023-05-12T08:15:41.573Z,84.19
2023-05-12T08:18:44.581Z,83.26
2023-05-12T08:21:47.336Z,81.97
2023-05-12T08:24:50.919Z,81.33
2023-05-12T08:27:55.402Z,81.33
2023-05-12T08:30:58.464Z,80.96
2023-05-12T08:34:09.699Z,78.92
2023-05-12T08:37:13.647Z,76.90
2023-05-12T08:40:21.988Z,75.03
2023-05-12T08:43:29.589Z,73.31
2023-05-12T08:46:33.188Z,74.12
2023-05-12T08:49:38.758Z,75.69
2023-05-12T08:52:41.884Z,75.27
2023-05-12T08:55:58.387Z,77.38
2023-05-12T08:59:11.346Z,78.34
2023-05-12T09:02:15.469Z,79.32
2023-05-12T09:05:18.697Z,79.03
2023-05-12T09:08:21.960Z,79.06
2023-05-12T09:11:24.973Z,78.77
2023-05-12T09:14:32.104Z,77.92
2023-05-12T09:17:35.240Z,78.15
2023-05-12T09:20:38.068Z,78.72
2023-05-12T09:23:40.859Z,78.13
2023-05-12T09:26:48.241Z,77.39
2023-05-12T09:29:58.980Z,76.57
2023-05-12T09:33:08.970Z,77.33
2023-05-12T09:36:12.511Z,76.71
2023-05-12T09:39:15.211Z,76.79
2023-05-12T09:42:18.238Z,77.54
2023-05-12T09:45:22.489Z,77.44
2023-05-12T09:48:27.392Z,76.67
2023-05-12T09:51:31.071Z,77.70
2023-05-12T09:54:34.674Z,77.33
2023-05-12T09:57:40.891Z,78.70
2023-05-12T10:01:12.834Z,75.86
2023-05-12T10:04:09.806Z,75.26
2023-05-12T10:07:14.542Z,74.54
2023-05-12T10:10:20.663Z,73.83
2023-05-12T10:13:28.124Z,72.99
2023-05-12T10:16:33.446Z,74.10
2023-05-12T10:19:36.884Z,72.41
2023-05-12T10:22:41.140Z,73.08
2023-05-12T10:25:45.185Z,72.88
2023-05-12T10:28:48.848Z,74.38
2023-05-12T10:31:53.067Z,75.05
2023-05-12T10:34:56.524Z,74.65
2023-05-12T10:38:03.608Z,75.94
2023-05-12T10:41:07.360Z,76.48
2023-05-12T10:44:10.780Z,76.72
2023-05-12T10:47:16.101Z,78.75
2023-05-12T10:50:28.163Z,78.22
2023-05-12T10:53:47.822Z,77.43
2023-05-12T10:56:52.794Z,78.86
2023-05-12T10:59:59.400Z,76.54
2023-05-12T11:03:13.334Z,76.30
2023-05-12T11:06:21.197Z,77.22
2023-05-12T11:09:24.954Z,75.44
2023-05-12T11:12:30.261Z,75.57
2023-05-12T11:15:33.124Z,73.90
2023-05-12T11:18:37.268Z,72.55
2023-05-12T11:21:40.347Z,71.79
2023-05-12T11:24:43.436Z,73.52
2023-05-12T11:27:50.700Z,74.84
2023-05-12T11:30:55.311Z,74.68
2023-05-12T11:34:12.480Z,76.58
2023-05-12T11:37:16.149Z,75.94
2023-05-12T11:40:20.645Z,77.82
2023-05-12T11:43:23.428Z,77.29
2023-05-12T11:46:27.309Z,78.36
2023-05-12T11:49:32.506Z,79.01
2023-05-12T11:52:35.348Z,79.41
2023-05-12T11:55:38.179Z,77.07
2023-05-12T11:58:40.945Z,76.63
2023-05-12T12:01:47.057Z,74.90
2023-05-12T12:04:51.162Z,72.27
2023-05-12T12:07:53.854Z,72.62
2023-05-12T12:10:56.710Z,72.71
2023-05-12T12:14:00.443Z,73.24
2023-05-12T12:17:03.759Z,74.98
2023-05-12T12:20:09.894Z,72.87
2023-05-12T12:23:12.861Z,70.95
2023-05-12T12:26:17.038Z,71.69
2023-05-12T12:29:19.857Z,72.76
2023-05-12T12:32:22.618Z,72.67
2023-05-12T12:35:26.985Z,72.03
2023-05-12T12:38:29.733Z,73.03
2023-05-12T12:41:32.457Z,73.29
2023-05-12T12:44:35.364Z,74.03
2023-05-12T12:47:38.865Z,74.45
2023-05-12T12:50:43.045Z,73.65
2023-05-12T12:53:46.195Z,73.97
2023-05-12T12:56:48.966Z,74.07
2023-05-12T12:59:52.018Z,73.32
2023-05-12T13:02:54.873Z,75.03
2023-05-12T13:05:59.050Z,74.93
2023-05-12T13:09:02.077Z,76.57
2023-05-12T13:12:05.560Z,78.75
2023-05-12T13:15:10.438Z,82.15
2023-05-12T13:18:13.575Z,83.52
2023-05-12T13:21:18.682Z,84.93
2023-05-12T13:24:21.417Z,87.07
2023-05-12T13:27:24.086Z,87.57
2023-05-12T13:30:26.989Z,88.99
2023-05-12T13:33:29.665Z,89.19
2023-05-12T13:36:34.718Z,89.09
2023-05-12T13:39:37.577Z,87.28
2023-05-12T13:42:40.323Z,85.39
2023-05-12T13:45:43.179Z,85.94
2023-05-12T13:48:46.936Z,87.93
2023-05-12T13:51:50.983Z,89.77
2023-05-12T13:54:53.681Z,89.93
2023-05-12T13:57:56.376Z,89.68
2023-05-12T14:00:59.266Z,89.08
2023-05-12T14:04:01.923Z,89.19
2023-05-12T14:07:08.570Z,89.53
2023-05-12T14:10:12.434Z,87.93
2023-05-12T14:13:15.089Z,86.12
2023-05-12T14:16:17.815Z,85.30
2023-05-12T14:19:20.517Z,84.21
2023-05-12T14:22:26.452Z,85.17
2023-05-12T14:25:30.748Z,82.39
2023-05-12T14:28:33.556Z,82.12
2023-05-12T14:31:36.465Z,82.16
2023-05-12T14:34:39.181Z,80.55
2023-05-12T14:37:43.498Z,81.98
2023-05-12T14:40:49.199Z,81.67
2023-05-12T14:43:51.947Z,80.27
2023-05-12T14:46:54.678Z,81.14
2023-05-12T14:49:57.328Z,81.00
2023-05-12T14:53:01.444Z,80.76
2023-05-12T14:56:04.296Z,80.88
2023-05-12T14:59:07.015Z,80.50
2023-05-12T15:02:09.924Z,80.18
2023-05-12T15:05:14.506Z,79.25
2023-05-12T15:08:18.688Z,79.48
2023-05-12T15:11:21.593Z,77.68
2023-05-12T15:17:32.348Z,77.66
2023-05-12T15:20:35.466Z,78.68
2023-05-12T15:23:41.454Z,79.44
2023-05-12T15:26:44.075Z,78.79
2023-05-12T15:29:46.784Z,77.06
2023-05-12T15:32:49.623Z,77.13
2023-05-12T15:35:52.431Z,77.08
2023-05-12T15:38:56.638Z,79.19
2023-05-12T15:42:00.122Z,78.93
2023-05-12T15:45:03.017Z,79.52
2023-05-12T15:48:08.694Z,80.34
2023-05-12T15:51:12.223Z,79.66
2023-05-12T15:54:16.408Z,80.73
2023-05-12T15:57:19.082Z,80.82
2023-05-12T16:00:22.529Z,79.22
2023-05-12T16:03:25.410Z,78.70
2023-05-12T16:06:28.469Z,78.63
2023-05-12T16:09:32.581Z,76.51
2023-05-12T16:12:35.362Z,76.88
2023-05-12T16:15:38.106Z,75.52
2023-05-12T16:18:41.201Z,76.14
2023-05-12T16:21:44.488Z,76.36
2023-05-12T16:24:49.256Z,77.50
2023-05-12T16:27:52.003Z,78.08
2023-05-12T16:30:54.730Z,79.10
2023-05-12T16:33:57.439Z,78.44
2023-05-12T16:37:00.141Z,78.72
2023-05-12T16:40:04.872Z,78.60
2023-05-12T16:43:07.644Z,79.26
2023-05-12T16:46:10.596Z,78.12
2023-05-12T16:49:13.394Z,77.22
2023-05-12T16:52:16.157Z,76.86
2023-05-12T16:55:20.392Z,76.49
2023-05-12T16:58:23.303Z,78.30
2023-05-12T17:01:26.449Z,79.25
2023-05-12T17:04:29.271Z,80.04
2023-05-12T17:07:32.271Z,80.11
2023-05-12T17:10:36.392Z,80.68
2023-05-12T17:13:39.209Z,80.93
2023-05-12T17:16:41.952Z,80.57
2023-05-12T17:19:44.787Z,80.23
2023-05-12T17:22:50.397Z,80.94
2023-05-12T17:25:54.825Z,80.31
2023-05-12T17:28:57.578Z,81.39
2023-05-12T17:32:02.052Z,80.81
2023-05-12T17:35:05.065Z,80.43
2023-05-12T17:38:07.817Z,81.49
2023-05-12T17:41:12.164Z,80.40
2023-05-12T17:44:14.830Z,80.82
2023-05-12T17:47:17.712Z,81.65
2023-05-12T17:50:20.693Z,81.44
2023-05-12T17:53:23.668Z,81.34
2023-05-12T17:56:28.692Z,81.35
2023-05-12T17:59:31.344Z,81.95
2023-05-12T18:02:34.202Z,83.03
2023-05-12T18:05:37.131Z,83.39
2023-05-12T18:08:40.095Z,83.61
2023-05-12T18:11:44.696Z,83.50
2023-05-12T18:14:47.445Z,84.24
2023-05-12T18:17:50.195Z,84.93
2023-05-12T18:20:52.949Z,85.01
2023-05-12T18:23:55.609Z,85.83
2023-05-12T18:26:59.673Z,85.66
2023-05-12T18:30:02.418Z,85.81
2023-05-12T18:33:05.722Z,86.51
2023-05-12T18:36:08.680Z,86.01
2023-05-12T18:39:13.553Z,86.11
2023-05-12T18:42:17.803Z,86.17
2023-05-12T18:45:20.878Z,85.47
2023-05-12T18:48:23.932Z,85.64
2023-05-12T18:51:27.449Z,85.64
2023-05-12T18:54:30.289Z,85.45
2023-05-12T18:57:34.459Z,85.30
2023-05-12T19:00:37.455Z,85.88
2023-05-12T19:03:40.295Z,85.15
2023-05-12T19:06:43.054Z,84.95
2023-05-12T19:09:45.775Z,84.76
2023-05-12T19:12:50.933Z,84.43
2023-05-12T19:15:53.772Z,84.71
2023-05-12T19:18:56.698Z,84.13
2023-05-12T19:21:59.444Z,83.75
2023-05-12T19:25:03.112Z,83.32
2023-05-12T19:28:07.460Z,83.08
2023-05-12T19:31:10.982Z,83.10
2023-05-12T19:34:13.666Z,83.00
2023-05-12T19:37:16.423Z,82.79
2023-05-12T19:40:19.313Z,82.04
2023-05-12T19:43:23.492Z,82.75
2023-05-12T19:46:26.298Z,82.13
2023-05-12T19:49:28.967Z,82.35
2023-05-12T19:52:31.729Z,81.70
2023-05-12T19:55:34.376Z,80.65
2023-05-12T19:58:38.504Z,80.88
2023-05-12T20:01:41.960Z,82.42
2023-05-12T20:04:45.504Z,82.62
2023-05-12T20:07:48.535Z,82.80
2023-05-12T20:10:52.114Z,82.95
2023-05-12T20:13:56.224Z,82.65
2023-05-12T20:16:59.149Z,82.90
2023-05-12T20:20:04.147Z,82.08
2023-05-12T20:23:06.850Z,82.09
2023-05-12T20:26:10.010Z,82.64
2023-05-12T20:29:20.678Z,83.52
2023-05-12T20:32:23.659Z,84.43
2023-05-12T20:35:26.927Z,84.97
2023-05-12T20:38:29.764Z,85.06
2023-05-12T20:41:32.360Z,84.38
2023-05-12T20:44:36.614Z,83.64
2023-05-12T20:47:39.511Z,83.71
2023-05-12T20:50:43.176Z,83.89
2023-05-12T20:53:46.005Z,84.00
2023-05-12T20:56:48.990Z,84.13
2023-05-12T20:59:54.517Z,84.24
2023-05-12T21:02:58.059Z,84.39
2023-05-12T21:06:01.066Z,84.29
2023-05-12T21:09:04.922Z,84.70
2023-05-12T21:12:08.164Z,85.24
2023-05-12T21:15:13.058Z,85.18
2023-05-12T21:18:15.903Z,85.41
2023-05-12T21:21:18.643Z,85.10
2023-05-12T21:24:21.268Z,84.50
2023-05-12T21:27:23.980Z,84.68
2023-05-12T21:30:28.099Z,84.81
2023-05-12T21:33:30.925Z,85.66
2023-05-12T21:36:34.200Z,85.40
2023-05-12T21:39:37.067Z,85.07
2023-05-12T21:42:39.791Z,85.43
2023-05-12T21:45:43.881Z,85.58
2023-05-12T21:48:47.041Z,86.11
2023-05-12T21:51:50.016Z,86.27
2023-05-12T21:54:52.796Z,85.93
2023-05-12T21:57:55.501Z,86.09
2023-05-12T22:01:00.151Z,85.45
2023-05-12T22:04:03.250Z,86.18
2023-05-12T22:07:06.433Z,85.83
2023-05-12T22:10:10.159Z,86.34
2023-05-12T22:13:12.874Z,86.25
2023-05-12T22:16:18.572Z,86.72
2023-05-12T22:19:22.857Z,86.29
2023-05-12T22:22:26.466Z,86.64
2023-05-12T22:25:29.334Z,86.02
2023-05-12T22:28:32.281Z,86.99
2023-05-12T22:31:36.494Z,87.20
2023-05-12T22:34:39.404Z,86.29
2023-05-12T22:37:42.271Z,86.85
2023-05-12T22:40:45.180Z,86.91
2023-05-12T22:43:48.020Z,86.94
2023-05-12T22:46:52.206Z,86.83
2023-05-12T22:49:55.013Z,86.69
2023-05-12T22:52:58.329Z,86.53
2023-05-12T22:56:00.992Z,86.69
2023-05-12T22:59:03.913Z,86.24
2023-05-12T23:02:08.034Z,86.36
2023-05-12T23:05:11.113Z,86.32
2023-05-12T23:08:13.766Z,86.32
2023-05-12T23:11:16.568Z,86.37
2023-05-12T23:14:19.353Z,85.94
2023-05-12T23:17:23.458Z,86.41
2023-05-12T23:20:26.169Z,86.27
2023-05-12T23:23:28.899Z,86.57
2023-05-12T23:26:31.784Z,86.05
2023-05-12T23:29:34.747Z,86.40
2023-05-12T23:32:39.030Z,86.85
2023-05-12T23:35:41.799Z,87.44
2023-05-12T23:38:44.521Z,87.79
2023-05-12T23:41:47.237Z,88.55
2023-05-12T23:44:50.008Z,89.41
2023-05-12T23:47:54.210Z,89.82
2023-05-12T23:50:56.894Z,90.59
2023-05-12T23:53:59.603Z,91.19
2023-05-12T23:57:03.173Z,91.42
